sensor_id;sensor_type;location;lat;lon;timestamp;P1;durP1;ratioP1;P2;durP2;ratioP2
76194;SDS011;64964;48.694;21.206;2022-12-18T00:01:00;38.13;;;17.17;;
76194;SDS011;64964;48.694;21.206;2022-12-18T00:03:31;31.45;;;15.40;;
76194;SDS011;64964;48.694;21.206;2022-12-18T00:05:57;16.20;;;7.65;;
76194;SDS011;64964;48.694;21.206;2022-12-18T00:08:23;15.00;;;7.10;;
76194;SDS011;64964;48.694;21.206;2022-12-18T00:10:48;11.80;;;6.33;;
76194;SDS011;64964;48.694;21.206;2022-12-18T00:13:13;38.57;;;17.10;;
76194;SDS011;64964;48.694;21.206;2022-12-18T00:15:39;20.95;;;9.75;;
76194;SDS011;64964;48.694;21.206;2022-12-18T00:18:05;13.60;;;6.57;;
76194;SDS011;64964;48.694;21.206;2022-12-18T00:20:31;15.50;;;8.40;;
76194;SDS011;64964;48.694;21.206;2022-12-18T00:23:00;15.30;;;8.90;;
76194;SDS011;64964;48.694;21.206;2022-12-18T00:25:25;14.73;;;7.17;;
76194;SDS011;64964;48.694;21.206;2022-12-18T00:27:51;11.57;;;5.37;;
76194;SDS011;64964;48.694;21.206;2022-12-18T00:30:16;13.87;;;6.50;;
76194;SDS011;64964;48.694;21.206;2022-12-18T00:32:41;12.77;;;6.20;;
76194;SDS011;64964;48.694;21.206;2022-12-18T00:35:07;14.83;;;7.70;;
76194;SDS011;64964;48.694;21.206;2022-12-18T00:37:33;12.30;;;5.70;;
76194;SDS011;64964;48.694;21.206;2022-12-18T00:39:59;18.05;;;10.40;;
76194;SDS011;64964;48.694;21.206;2022-12-18T00:42:24;13.70;;;7.70;;
76194;SDS011;64964;48.694;21.206;2022-12-18T00:45:08;13.38;;;6.47;;
76194;SDS011;64964;48.694;21.206;2022-12-18T00:47:33;9.43;;;4.67;;
76194;SDS011;64964;48.694;21.206;2022-12-18T00:49:59;12.90;;;5.57;;
76194;SDS011;64964;48.694;21.206;2022-12-18T00:52:25;12.57;;;5.28;;
76194;SDS011;64964;48.694;21.206;2022-12-18T00:54:50;10.97;;;4.97;;
76194;SDS011;64964;48.694;21.206;2022-12-18T00:57:15;11.87;;;4.73;;
76194;SDS011;64964;48.694;21.206;2022-12-18T00:59:41;12.90;;;4.80;;
76194;SDS011;64964;48.694;21.206;2022-12-18T01:02:06;14.87;;;5.50;;
76194;SDS011;64964;48.694;21.206;2022-12-18T01:04:32;15.17;;;6.07;;
76194;SDS011;64964;48.694;21.206;2022-12-18T01:06:58;11.15;;;5.22;;
76194;SDS011;64964;48.694;21.206;2022-12-18T01:09:23;12.03;;;5.57;;
76194;SDS011;64964;48.694;21.206;2022-12-18T01:11:48;13.13;;;5.50;;
76194;SDS011;64964;48.694;21.206;2022-12-18T01:14:14;11.87;;;5.03;;
76194;SDS011;64964;48.694;21.206;2022-12-18T01:16:39;13.93;;;5.60;;
76194;SDS011;64964;48.694;21.206;2022-12-18T01:19:05;14.40;;;5.63;;
76194;SDS011;64964;48.694;21.206;2022-12-18T01:21:30;12.37;;;5.37;;
76194;SDS011;64964;48.694;21.206;2022-12-18T01:23:56;13.27;;;5.20;;
76194;SDS011;64964;48.694;21.206;2022-12-18T01:26:22;11.50;;;5.03;;
76194;SDS011;64964;48.694;21.206;2022-12-18T01:28:48;11.02;;;5.05;;
76194;SDS011;64964;48.694;21.206;2022-12-18T01:31:15;13.63;;;5.43;;
76194;SDS011;64964;48.694;21.206;2022-12-18T01:33:41;13.52;;;4.93;;
76194;SDS011;64964;48.694;21.206;2022-12-18T01:36:07;14.07;;;5.87;;
76194;SDS011;64964;48.694;21.206;2022-12-18T01:38:33;14.93;;;5.55;;
76194;SDS011;64964;48.694;21.206;2022-12-18T01:40:58;13.37;;;5.70;;
76194;SDS011;64964;48.694;21.206;2022-12-18T01:46:15;11.75;;;4.82;;
76194;SDS011;64964;48.694;21.206;2022-12-18T01:48:42;14.38;;;5.70;;
76194;SDS011;64964;48.694;21.206;2022-12-18T01:51:10;10.98;;;5.20;;
76194;SDS011;64964;48.694;21.206;2022-12-18T01:53:37;15.03;;;5.53;;
76194;SDS011;64964;48.694;21.206;2022-12-18T01:56:05;13.50;;;5.85;;
76194;SDS011;64964;48.694;21.206;2022-12-18T02:01:16;12.63;;;6.17;;
76194;SDS011;64964;48.694;21.206;2022-12-18T02:03:43;14.48;;;5.28;;
76194;SDS011;64964;48.694;21.206;2022-12-18T02:06:16;14.23;;;5.55;;
76194;SDS011;64964;48.694;21.206;2022-12-18T02:17:31;14.90;;;6.32;;
76194;SDS011;64964;48.694;21.206;2022-12-18T02:25:43;13.48;;;6.15;;
76194;SDS011;64964;48.694;21.206;2022-12-18T02:28:23;15.73;;;6.63;;
76194;SDS011;64964;48.694;21.206;2022-12-18T02:30:53;17.95;;;6.47;;
76194;SDS011;64964;48.694;21.206;2022-12-18T02:33:23;16.00;;;6.40;;
76194;SDS011;64964;48.694;21.206;2022-12-18T02:35:51;17.35;;;6.78;;
76194;SDS011;64964;48.694;21.206;2022-12-18T02:38:19;16.90;;;7.32;;
76194;SDS011;64964;48.694;21.206;2022-12-18T02:40:45;21.40;;;8.20;;
76194;SDS011;64964;48.694;21.206;2022-12-18T02:43:13;19.15;;;8.25;;
76194;SDS011;64964;48.694;21.206;2022-12-18T02:45:46;21.65;;;7.90;;
76194;SDS011;64964;48.694;21.206;2022-12-18T02:48:14;25.35;;;9.32;;
76194;SDS011;64964;48.694;21.206;2022-12-18T02:53:58;27.13;;;9.50;;
76194;SDS011;64964;48.694;21.206;2022-12-18T02:56:35;26.58;;;9.75;;
76194;SDS011;64964;48.694;21.206;2022-12-18T02:59:30;29.42;;;10.40;;
76194;SDS011;64964;48.694;21.206;2022-12-18T03:02:16;32.90;;;11.48;;
76194;SDS011;64964;48.694;21.206;2022-12-18T03:04:47;29.55;;;11.43;;
76194;SDS011;64964;48.694;21.206;2022-12-18T03:07:23;30.70;;;11.03;;
76194;SDS011;64964;48.694;21.206;2022-12-18T03:09:52;30.75;;;10.40;;
76194;SDS011;64964;48.694;21.206;2022-12-18T03:12:29;29.38;;;10.70;;
76194;SDS011;64964;48.694;21.206;2022-12-18T03:15:04;23.52;;;9.18;;
76194;SDS011;64964;48.694;21.206;2022-12-18T03:17:35;25.42;;;8.95;;
76194;SDS011;64964;48.694;21.206;2022-12-18T03:20:07;27.67;;;9.80;;
76194;SDS011;64964;48.694;21.206;2022-12-18T03:22:38;30.05;;;9.60;;
76194;SDS011;64964;48.694;21.206;2022-12-18T03:25:04;23.67;;;9.60;;
76194;SDS011;64964;48.694;21.206;2022-12-18T03:27:32;22.17;;;9.27;;
76194;SDS011;64964;48.694;21.206;2022-12-18T03:30:05;27.92;;;10.05;;
76194;SDS011;64964;48.694;21.206;2022-12-18T03:32:36;28.65;;;10.82;;
76194;SDS011;64964;48.694;21.206;2022-12-18T03:35:07;31.08;;;10.63;;
76194;SDS011;64964;48.694;21.206;2022-12-18T03:37:36;33.30;;;12.13;;
76194;SDS011;64964;48.694;21.206;2022-12-18T03:40:02;34.03;;;13.07;;
76194;SDS011;64964;48.694;21.206;2022-12-18T03:42:29;37.08;;;12.85;;
76194;SDS011;64964;48.694;21.206;2022-12-18T03:55:49;37.03;;;13.10;;
76194;SDS011;64964;48.694;21.206;2022-12-18T03:58:17;51.28;;;15.55;;
76194;SDS011;64964;48.694;21.206;2022-12-18T04:00:45;46.07;;;15.80;;
76194;SDS011;64964;48.694;21.206;2022-12-18T04:03:13;47.38;;;15.80;;
76194;SDS011;64964;48.694;21.206;2022-12-18T04:05:40;45.88;;;15.65;;
76194;SDS011;64964;48.694;21.206;2022-12-18T04:08:08;50.75;;;15.13;;
76194;SDS011;64964;48.694;21.206;2022-12-18T04:10:34;42.67;;;14.40;;
76194;SDS011;64964;48.694;21.206;2022-12-18T04:13:00;40.47;;;14.18;;
76194;SDS011;64964;48.694;21.206;2022-12-18T04:15:25;46.70;;;15.27;;
76194;SDS011;64964;48.694;21.206;2022-12-18T04:17:51;51.23;;;14.97;;
76194;SDS011;64964;48.694;21.206;2022-12-18T04:20:16;47.63;;;15.20;;
76194;SDS011;64964;48.694;21.206;2022-12-18T04:22:42;45.13;;;15.53;;
76194;SDS011;64964;48.694;21.206;2022-12-18T04:25:07;44.97;;;14.50;;
76194;SDS011;64964;48.694;21.206;2022-12-18T04:27:33;42.85;;;14.90;;
76194;SDS011;64964;48.694;21.206;2022-12-18T04:29:59;52.00;;;15.57;;
76194;SDS011;64964;48.694;21.206;2022-12-18T04:32:24;37.47;;;14.43;;
76194;SDS011;64964;48.694;21.206;2022-12-18T04:34:49;47.67;;;14.93;;
76194;SDS011;64964;48.694;21.206;2022-12-18T04:37:15;52.73;;;14.93;;
76194;SDS011;64964;48.694;21.206;2022-12-18T04:39:40;43.67;;;14.23;;
76194;SDS011;64964;48.694;21.206;2022-12-18T04:42:05;57.07;;;15.10;;
76194;SDS011;64964;48.694;21.206;2022-12-18T04:44:31;46.70;;;15.80;;
76194;SDS011;64964;48.694;21.206;2022-12-18T04:46:56;42.43;;;15.53;;
76194;SDS011;64964;48.694;21.206;2022-12-18T04:49:22;50.80;;;16.10;;
76194;SDS011;64964;48.694;21.206;2022-12-18T04:51:47;52.50;;;15.88;;
76194;SDS011;64964;48.694;21.206;2022-12-18T04:54:12;52.03;;;15.30;;
76194;SDS011;64964;48.694;21.206;2022-12-18T04:56:38;51.03;;;15.77;;
76194;SDS011;64964;48.694;21.206;2022-12-18T04:59:03;52.50;;;15.30;;
76194;SDS011;64964;48.694;21.206;2022-12-18T05:01:29;47.07;;;14.67;;
76194;SDS011;64964;48.694;21.206;2022-12-18T05:03:55;49.77;;;14.97;;
76194;SDS011;64964;48.694;21.206;2022-12-18T05:06:20;49.55;;;14.23;;
76194;SDS011;64964;48.694;21.206;2022-12-18T05:08:45;51.73;;;15.90;;
76194;SDS011;64964;48.694;21.206;2022-12-18T05:11:12;50.03;;;16.10;;
76194;SDS011;64964;48.694;21.206;2022-12-18T05:13:40;48.92;;;15.90;;
76194;SDS011;64964;48.694;21.206;2022-12-18T05:16:07;59.42;;;16.60;;
76194;SDS011;64964;48.694;21.206;2022-12-18T05:18:32;45.93;;;15.10;;
76194;SDS011;64964;48.694;21.206;2022-12-18T05:20:58;59.88;;;17.05;;
76194;SDS011;64964;48.694;21.206;2022-12-18T05:23:23;50.20;;;14.80;;
76194;SDS011;64964;48.694;21.206;2022-12-18T05:25:53;49.70;;;14.32;;
76194;SDS011;64964;48.694;21.206;2022-12-18T05:28:21;43.70;;;14.70;;
76194;SDS011;64964;48.694;21.206;2022-12-18T05:30:48;56.67;;;15.57;;
76194;SDS011;64964;48.694;21.206;2022-12-18T05:33:18;52.97;;;14.73;;
76194;SDS011;64964;48.694;21.206;2022-12-18T05:35:44;47.05;;;14.70;;
76194;SDS011;64964;48.694;21.206;2022-12-18T05:38:09;48.37;;;14.77;;
76194;SDS011;64964;48.694;21.206;2022-12-18T05:40:35;44.47;;;14.73;;
76194;SDS011;64964;48.694;21.206;2022-12-18T05:43:01;50.88;;;15.10;;
76194;SDS011;64964;48.694;21.206;2022-12-18T05:45:27;52.80;;;15.33;;
76194;SDS011;64964;48.694;21.206;2022-12-18T05:47:52;48.23;;;15.17;;
76194;SDS011;64964;48.694;21.206;2022-12-18T05:50:17;49.33;;;15.90;;
76194;SDS011;64964;48.694;21.206;2022-12-18T05:52:43;53.83;;;15.00;;
76194;SDS011;64964;48.694;21.206;2022-12-18T05:55:08;44.07;;;13.63;;
76194;SDS011;64964;48.694;21.206;2022-12-18T05:57:33;45.85;;;13.68;;
76194;SDS011;64964;48.694;21.206;2022-12-18T05:59:59;49.33;;;14.03;;
76194;SDS011;64964;48.694;21.206;2022-12-18T06:02:24;52.70;;;16.20;;
76194;SDS011;64964;48.694;21.206;2022-12-18T06:04:49;52.00;;;13.80;;
76194;SDS011;64964;48.694;21.206;2022-12-18T06:07:15;50.10;;;14.77;;
76194;SDS011;64964;48.694;21.206;2022-12-18T06:09:40;45.87;;;13.97;;
76194;SDS011;64964;48.694;21.206;2022-12-18T06:12:05;37.87;;;13.60;;
76194;SDS011;64964;48.694;21.206;2022-12-18T06:14:31;46.17;;;14.95;;
76194;SDS011;64964;48.694;21.206;2022-12-18T06:16:56;47.63;;;13.63;;
76194;SDS011;64964;48.694;21.206;2022-12-18T06:19:22;42.90;;;13.40;;
76194;SDS011;64964;48.694;21.206;2022-12-18T06:21:47;47.47;;;14.43;;
76194;SDS011;64964;48.694;21.206;2022-12-18T06:24:14;51.08;;;14.80;;
76194;SDS011;64964;48.694;21.206;2022-12-18T06:26:39;48.10;;;14.57;;
76194;SDS011;64964;48.694;21.206;2022-12-18T06:29:05;46.87;;;14.63;;
76194;SDS011;64964;48.694;21.206;2022-12-18T06:31:31;40.58;;;12.70;;
76194;SDS011;64964;48.694;21.206;2022-12-18T06:33:56;43.53;;;13.83;;
76194;SDS011;64964;48.694;21.206;2022-12-18T06:36:21;53.67;;;14.10;;
76194;SDS011;64964;48.694;21.206;2022-12-18T06:38:47;47.57;;;13.37;;
76194;SDS011;64964;48.694;21.206;2022-12-18T06:41:13;46.88;;;14.68;;
76194;SDS011;64964;48.694;21.206;2022-12-18T06:43:40;48.57;;;14.40;;
76194;SDS011;64964;48.694;21.206;2022-12-18T06:46:06;54.65;;;15.23;;
76194;SDS011;64964;48.694;21.206;2022-12-18T06:48:31;40.28;;;13.05;;
76194;SDS011;64964;48.694;21.206;2022-12-18T06:50:57;34.10;;;11.50;;
76194;SDS011;64964;48.694;21.206;2022-12-18T06:53:23;49.83;;;14.95;;
76194;SDS011;64964;48.694;21.206;2022-12-18T06:55:48;53.00;;;13.70;;
76194;SDS011;64964;48.694;21.206;2022-12-18T06:58:14;46.93;;;14.93;;
76194;SDS011;64964;48.694;21.206;2022-12-18T07:00:39;41.90;;;13.43;;
76194;SDS011;64964;48.694;21.206;2022-12-18T07:03:05;43.13;;;13.07;;
76194;SDS011;64964;48.694;21.206;2022-12-18T07:05:30;49.37;;;14.53;;
76194;SDS011;64964;48.694;21.206;2022-12-18T07:07:56;49.95;;;13.95;;
76194;SDS011;64964;48.694;21.206;2022-12-18T07:10:21;39.73;;;13.10;;
76194;SDS011;64964;48.694;21.206;2022-12-18T07:12:47;46.50;;;14.07;;
76194;SDS011;64964;48.694;21.206;2022-12-18T07:15:12;49.60;;;14.53;;
76194;SDS011;64964;48.694;21.206;2022-12-18T07:17:37;42.63;;;13.17;;
76194;SDS011;64964;48.694;21.206;2022-12-18T07:20:03;41.73;;;13.43;;
76194;SDS011;64964;48.694;21.206;2022-12-18T07:22:28;45.60;;;13.43;;
76194;SDS011;64964;48.694;21.206;2022-12-18T07:24:54;42.67;;;13.53;;
76194;SDS011;64964;48.694;21.206;2022-12-18T07:27:20;46.00;;;14.23;;
76194;SDS011;64964;48.694;21.206;2022-12-18T07:29:46;42.03;;;12.35;;
76194;SDS011;64964;48.694;21.206;2022-12-18T07:32:11;43.07;;;13.20;;
76194;SDS011;64964;48.694;21.206;2022-12-18T07:34:36;44.23;;;12.80;;
76194;SDS011;64964;48.694;21.206;2022-12-18T07:37:02;42.80;;;12.50;;
76194;SDS011;64964;48.694;21.206;2022-12-18T07:39:27;40.97;;;13.77;;
76194;SDS011;64964;48.694;21.206;2022-12-18T07:41:52;48.70;;;14.13;;
76194;SDS011;64964;48.694;21.206;2022-12-18T07:44:36;42.20;;;14.33;;
76194;SDS011;64964;48.694;21.206;2022-12-18T07:47:02;44.75;;;13.65;;
76194;SDS011;64964;48.694;21.206;2022-12-18T07:49:28;42.60;;;12.60;;
76194;SDS011;64964;48.694;21.206;2022-12-18T07:51:54;40.87;;;11.70;;
76194;SDS011;64964;48.694;21.206;2022-12-18T07:54:21;38.85;;;12.45;;
76194;SDS011;64964;48.694;21.206;2022-12-18T07:56:47;42.10;;;12.97;;
76194;SDS011;64964;48.694;21.206;2022-12-18T07:59:12;33.30;;;11.95;;
76194;SDS011;64964;48.694;21.206;2022-12-18T08:01:38;38.13;;;12.90;;
76194;SDS011;64964;48.694;21.206;2022-12-18T08:04:03;38.20;;;13.43;;
76194;SDS011;64964;48.694;21.206;2022-12-18T08:06:28;36.93;;;12.37;;
76194;SDS011;64964;48.694;21.206;2022-12-18T08:08:54;31.37;;;12.10;;
76194;SDS011;64964;48.694;21.206;2022-12-18T08:11:21;39.28;;;12.63;;
76194;SDS011;64964;48.694;21.206;2022-12-18T08:13:47;40.03;;;13.63;;
76194;SDS011;64964;48.694;21.206;2022-12-18T08:16:13;40.57;;;13.47;;
76194;SDS011;64964;48.694;21.206;2022-12-18T08:18:38;40.27;;;13.67;;
76194;SDS011;64964;48.694;21.206;2022-12-18T08:21:08;37.23;;;13.57;;
76194;SDS011;64964;48.694;21.206;2022-12-18T08:23:35;40.22;;;13.30;;
76194;SDS011;64964;48.694;21.206;2022-12-18T08:26:00;41.35;;;13.93;;
76194;SDS011;64964;48.694;21.206;2022-12-18T08:28:26;37.77;;;13.37;;
76194;SDS011;64964;48.694;21.206;2022-12-18T08:30:51;33.33;;;12.90;;
76194;SDS011;64964;48.694;21.206;2022-12-18T08:33:17;31.57;;;12.87;;
76194;SDS011;64964;48.694;21.206;2022-12-18T08:35:42;33.47;;;13.20;;
76194;SDS011;64964;48.694;21.206;2022-12-18T08:38:08;34.97;;;13.38;;
76194;SDS011;64964;48.694;21.206;2022-12-18T08:40:33;33.40;;;13.43;;
76194;SDS011;64964;48.694;21.206;2022-12-18T08:42:59;37.87;;;14.00;;
76194;SDS011;64964;48.694;21.206;2022-12-18T08:45:43;36.08;;;13.75;;
76194;SDS011;64964;48.694;21.206;2022-12-18T08:48:08;32.90;;;13.57;;
76194;SDS011;64964;48.694;21.206;2022-12-18T08:50:34;36.05;;;14.93;;
76194;SDS011;64964;48.694;21.206;2022-12-18T08:52:59;35.00;;;14.00;;
76194;SDS011;64964;48.694;21.206;2022-12-18T08:55:25;34.28;;;14.73;;
76194;SDS011;64964;48.694;21.206;2022-12-18T08:57:50;37.87;;;15.17;;
76194;SDS011;64964;48.694;21.206;2022-12-18T09:00:17;36.10;;;14.98;;
76194;SDS011;64964;48.694;21.206;2022-12-18T09:02:43;35.90;;;14.50;;
76194;SDS011;64964;48.694;21.206;2022-12-18T09:05:08;32.53;;;13.93;;
76194;SDS011;64964;48.694;21.206;2022-12-18T09:07:34;33.03;;;14.68;;
76194;SDS011;64964;48.694;21.206;2022-12-18T09:09:59;33.50;;;13.93;;
76194;SDS011;64964;48.694;21.206;2022-12-18T09:12:25;36.97;;;15.40;;
76194;SDS011;64964;48.694;21.206;2022-12-18T09:14:50;36.42;;;15.02;;
76194;SDS011;64964;48.694;21.206;2022-12-18T09:17:16;34.67;;;13.80;;
76194;SDS011;64964;48.694;21.206;2022-12-18T09:19:41;36.73;;;14.03;;
76194;SDS011;64964;48.694;21.206;2022-12-18T09:22:06;35.10;;;14.63;;
76194;SDS011;64964;48.694;21.206;2022-12-18T09:24:32;34.73;;;14.40;;
76194;SDS011;64964;48.694;21.206;2022-12-18T09:26:57;36.03;;;14.30;;
76194;SDS011;64964;48.694;21.206;2022-12-18T09:29:22;35.73;;;13.60;;
76194;SDS011;64964;48.694;21.206;2022-12-18T09:31:48;33.53;;;14.07;;
76194;SDS011;64964;48.694;21.206;2022-12-18T09:34:14;40.28;;;14.98;;
76194;SDS011;64964;48.694;21.206;2022-12-18T09:36:40;36.53;;;14.02;;
76194;SDS011;64964;48.694;21.206;2022-12-18T09:39:05;37.23;;;14.70;;
76194;SDS011;64964;48.694;21.206;2022-12-18T09:44:13;42.95;;;15.57;;
76194;SDS011;64964;48.694;21.206;2022-12-18T09:47:03;45.13;;;15.95;;
76194;SDS011;64964;48.694;21.206;2022-12-18T09:49:34;43.03;;;14.47;;
76194;SDS011;64964;48.694;21.206;2022-12-18T09:52:05;45.65;;;15.40;;
76194;SDS011;64964;48.694;21.206;2022-12-18T09:54:38;43.20;;;15.05;;
76194;SDS011;64964;48.694;21.206;2022-12-18T09:57:05;46.75;;;15.60;;
76194;SDS011;64964;48.694;21.206;2022-12-18T09:59:32;42.70;;;14.70;;
76194;SDS011;64964;48.694;21.206;2022-12-18T10:02:07;42.33;;;14.82;;
76194;SDS011;64964;48.694;21.206;2022-12-18T10:04:39;45.83;;;15.25;;
76194;SDS011;64964;48.694;21.206;2022-12-18T10:07:08;44.43;;;15.00;;
76194;SDS011;64964;48.694;21.206;2022-12-18T10:09:53;46.53;;;14.98;;
76194;SDS011;64964;48.694;21.206;2022-12-18T10:12:22;36.97;;;14.55;;
76194;SDS011;64964;48.694;21.206;2022-12-18T10:14:57;41.67;;;15.32;;
76194;SDS011;64964;48.694;21.206;2022-12-18T10:17:41;46.50;;;15.07;;
76194;SDS011;64964;48.694;21.206;2022-12-18T10:25:51;42.33;;;14.77;;
76194;SDS011;64964;48.694;21.206;2022-12-18T10:28:20;43.70;;;15.05;;
76194;SDS011;64964;48.694;21.206;2022-12-18T10:30:48;45.07;;;14.57;;
76194;SDS011;64964;48.694;21.206;2022-12-18T10:33:13;44.67;;;14.57;;
76194;SDS011;64964;48.694;21.206;2022-12-18T10:35:42;46.10;;;15.50;;
76194;SDS011;64964;48.694;21.206;2022-12-18T10:44:11;46.95;;;14.57;;
76194;SDS011;64964;48.694;21.206;2022-12-18T10:46:37;45.13;;;14.57;;
76194;SDS011;64964;48.694;21.206;2022-12-18T10:49:03;51.50;;;15.60;;
76194;SDS011;64964;48.694;21.206;2022-12-18T10:51:30;42.00;;;14.68;;
76194;SDS011;64964;48.694;21.206;2022-12-18T10:54:01;39.95;;;14.73;;
76194;SDS011;64964;48.694;21.206;2022-12-18T10:56:45;41.67;;;14.30;;
76194;SDS011;64964;48.694;21.206;2022-12-18T10:59:12;47.30;;;16.35;;
76194;SDS011;64964;48.694;21.206;2022-12-18T11:01:57;41.93;;;15.50;;
76194;SDS011;64964;48.694;21.206;2022-12-18T11:04:26;40.20;;;14.23;;
76194;SDS011;64964;48.694;21.206;2022-12-18T11:09:23;43.22;;;15.13;;
76194;SDS011;64964;48.694;21.206;2022-12-18T11:11:57;43.63;;;13.85;;
76194;SDS011;64964;48.694;21.206;2022-12-18T11:14:42;41.13;;;13.50;;
76194;SDS011;64964;48.694;21.206;2022-12-18T11:19:43;40.97;;;14.50;;
76194;SDS011;64964;48.694;21.206;2022-12-18T11:22:25;44.20;;;14.35;;
76194;SDS011;64964;48.694;21.206;2022-12-18T11:24:56;45.73;;;14.03;;
76194;SDS011;64964;48.694;21.206;2022-12-18T11:27:26;38.80;;;14.60;;
76194;SDS011;64964;48.694;21.206;2022-12-18T11:29:53;37.83;;;14.15;;
76194;SDS011;64964;48.694;21.206;2022-12-18T11:32:46;44.53;;;14.65;;
76194;SDS011;64964;48.694;21.206;2022-12-18T11:35:17;39.13;;;13.52;;
76194;SDS011;64964;48.694;21.206;2022-12-18T11:37:46;42.87;;;13.77;;
76194;SDS011;64964;48.694;21.206;2022-12-18T11:40:17;37.22;;;13.73;;
76194;SDS011;64964;48.694;21.206;2022-12-18T11:42:54;36.90;;;12.85;;
76194;SDS011;64964;48.694;21.206;2022-12-18T11:45:30;37.30;;;12.80;;
76194;SDS011;64964;48.694;21.206;2022-12-18T11:48:03;32.22;;;12.23;;
76194;SDS011;64964;48.694;21.206;2022-12-18T11:53:16;41.75;;;13.35;;
76194;SDS011;64964;48.694;21.206;2022-12-18T12:01:09;40.28;;;12.82;;
76194;SDS011;64964;48.694;21.206;2022-12-18T12:03:56;40.00;;;12.83;;
76194;SDS011;64964;48.694;21.206;2022-12-18T12:06:31;35.67;;;12.40;;
76194;SDS011;64964;48.694;21.206;2022-12-18T12:14:19;33.33;;;12.63;;
76194;SDS011;64964;48.694;21.206;2022-12-18T12:19:36;35.15;;;12.00;;
76194;SDS011;64964;48.694;21.206;2022-12-18T12:22:29;39.65;;;13.00;;
76194;SDS011;64964;48.694;21.206;2022-12-18T12:28:04;38.95;;;12.55;;
76194;SDS011;64964;48.694;21.206;2022-12-18T12:30:58;32.73;;;11.63;;
76194;SDS011;64964;48.694;21.206;2022-12-18T12:36:07;38.90;;;11.75;;
76194;SDS011;64964;48.694;21.206;2022-12-18T12:38:41;28.60;;;10.48;;
76194;SDS011;64964;48.694;21.206;2022-12-18T12:41:09;29.70;;;10.70;;
76194;SDS011;64964;48.694;21.206;2022-12-18T12:44:01;29.30;;;11.27;;
76194;SDS011;64964;48.694;21.206;2022-12-18T12:46:32;28.40;;;10.85;;
76194;SDS011;64964;48.694;21.206;2022-12-18T12:49:01;32.97;;;11.07;;
76194;SDS011;64964;48.694;21.206;2022-12-18T12:51:34;34.00;;;11.48;;
76194;SDS011;64964;48.694;21.206;2022-12-18T12:54:02;31.40;;;11.23;;
76194;SDS011;64964;48.694;21.206;2022-12-18T12:56:42;33.03;;;11.33;;
76194;SDS011;64964;48.694;21.206;2022-12-18T12:59:24;29.10;;;10.15;;
76194;SDS011;64964;48.694;21.206;2022-12-18T13:02:05;29.73;;;9.75;;
76194;SDS011;64964;48.694;21.206;2022-12-18T13:07:15;31.50;;;11.45;;
76194;SDS011;64964;48.694;21.206;2022-12-18T13:12:50;33.20;;;10.38;;
76194;SDS011;64964;48.694;21.206;2022-12-18T13:15:23;31.30;;;10.05;;
76194;SDS011;64964;48.694;21.206;2022-12-18T13:28:20;36.10;;;10.45;;
76194;SDS011;64964;48.694;21.206;2022-12-18T13:30:51;29.23;;;10.88;;
76194;SDS011;64964;48.694;21.206;2022-12-18T13:40:59;31.02;;;10.73;;
76194;SDS011;64964;48.694;21.206;2022-12-18T13:43:44;29.55;;;9.85;;
76194;SDS011;64964;48.694;21.206;2022-12-18T13:46:24;34.03;;;11.15;;
76194;SDS011;64964;48.694;21.206;2022-12-18T13:48:55;32.38;;;11.02;;
76194;SDS011;64964;48.694;21.206;2022-12-18T13:51:26;30.33;;;10.33;;
76194;SDS011;64964;48.694;21.206;2022-12-18T13:53:54;31.83;;;10.80;;
76194;SDS011;64964;48.694;21.206;2022-12-18T13:56:26;31.52;;;10.88;;
76194;SDS011;64964;48.694;21.206;2022-12-18T13:59:08;33.50;;;11.52;;
76194;SDS011;64964;48.694;21.206;2022-12-18T14:01:41;30.48;;;10.80;;
76194;SDS011;64964;48.694;21.206;2022-12-18T14:04:11;33.20;;;11.57;;
76194;SDS011;64964;48.694;21.206;2022-12-18T14:06:44;35.22;;;11.07;;
76194;SDS011;64964;48.694;21.206;2022-12-18T14:09:12;32.63;;;11.15;;
76194;SDS011;64964;48.694;21.206;2022-12-18T14:11:40;29.33;;;10.85;;
76194;SDS011;64964;48.694;21.206;2022-12-18T14:14:12;33.10;;;10.65;;
76194;SDS011;64964;48.694;21.206;2022-12-18T14:16:40;36.90;;;11.67;;
76194;SDS011;64964;48.694;21.206;2022-12-18T14:19:08;30.33;;;11.00;;
76194;SDS011;64964;48.694;21.206;2022-12-18T14:21:38;31.48;;;11.32;;
76194;SDS011;64964;48.694;21.206;2022-12-18T14:24:20;30.17;;;10.67;;
76194;SDS011;64964;48.694;21.206;2022-12-18T14:26:47;32.95;;;11.27;;
76194;SDS011;64964;48.694;21.206;2022-12-18T14:29:18;33.00;;;11.07;;
76194;SDS011;64964;48.694;21.206;2022-12-18T14:32:04;29.37;;;11.10;;
76194;SDS011;64964;48.694;21.206;2022-12-18T14:34:30;41.40;;;11.52;;
76194;SDS011;64964;48.694;21.206;2022-12-18T14:36:56;34.03;;;11.10;;
76194;SDS011;64964;48.694;21.206;2022-12-18T14:39:21;34.27;;;10.90;;
76194;SDS011;64964;48.694;21.206;2022-12-18T14:41:49;34.23;;;11.30;;
76194;SDS011;64964;48.694;21.206;2022-12-18T14:44:14;34.13;;;10.68;;
76194;SDS011;64964;48.694;21.206;2022-12-18T14:46:42;35.15;;;11.48;;
76194;SDS011;64964;48.694;21.206;2022-12-18T14:51:47;27.45;;;9.98;;
76194;SDS011;64964;48.694;21.206;2022-12-18T14:54:15;35.22;;;11.23;;
76194;SDS011;64964;48.694;21.206;2022-12-18T14:56:44;30.17;;;11.35;;
76194;SDS011;64964;48.694;21.206;2022-12-18T14:59:30;34.90;;;11.40;;
76194;SDS011;64964;48.694;21.206;2022-12-18T15:02:04;31.40;;;11.23;;
76194;SDS011;64964;48.694;21.206;2022-12-18T15:04:42;32.70;;;10.23;;
76194;SDS011;64964;48.694;21.206;2022-12-18T15:07:22;31.65;;;10.80;;
76194;SDS011;64964;48.694;21.206;2022-12-18T15:12:29;30.45;;;10.45;;
76194;SDS011;64964;48.694;21.206;2022-12-18T15:15:02;29.47;;;10.20;;
76194;SDS011;64964;48.694;21.206;2022-12-18T15:17:28;32.08;;;11.02;;
76194;SDS011;64964;48.694;21.206;2022-12-18T15:20:08;25.10;;;9.47;;
76194;SDS011;64964;48.694;21.206;2022-12-18T15:22:35;25.98;;;10.68;;
76194;SDS011;64964;48.694;21.206;2022-12-18T15:25:02;35.33;;;11.05;;
76194;SDS011;64964;48.694;21.206;2022-12-18T15:27:45;32.10;;;11.25;;
76194;SDS011;64964;48.694;21.206;2022-12-18T15:30:15;32.95;;;12.00;;
76194;SDS011;64964;48.694;21.206;2022-12-18T15:32:45;30.07;;;10.03;;
76194;SDS011;64964;48.694;21.206;2022-12-18T15:35:19;33.33;;;11.35;;
76194;SDS011;64964;48.694;21.206;2022-12-18T15:37:47;38.03;;;10.98;;
76194;SDS011;64964;48.694;21.206;2022-12-18T15:40:13;35.27;;;11.73;;
76194;SDS011;64964;48.694;21.206;2022-12-18T15:42:41;35.83;;;11.43;;
76194;SDS011;64964;48.694;21.206;2022-12-18T15:45:26;31.52;;;12.15;;
76194;SDS011;64964;48.694;21.206;2022-12-18T15:47:52;45.40;;;13.02;;
76194;SDS011;64964;48.694;21.206;2022-12-18T15:50:17;37.67;;;12.63;;
76194;SDS011;64964;48.694;21.206;2022-12-18T15:52:44;34.05;;;11.65;;
76194;SDS011;64964;48.694;21.206;2022-12-18T15:55:15;35.57;;;10.77;;
76194;SDS011;64964;48.694;21.206;2022-12-18T15:58:01;36.80;;;11.60;;
76194;SDS011;64964;48.694;21.206;2022-12-18T16:00:26;44.80;;;12.90;;
76194;SDS011;64964;48.694;21.206;2022-12-18T16:02:52;37.33;;;13.65;;
76194;SDS011;64964;48.694;21.206;2022-12-18T16:05:18;39.60;;;14.40;;